createdAt,value
2023-05-10T00:01:01.126Z,100.00
2023-05-10T00:04:05.924Z,100.00
2023-05-10T00:07:08.558Z,100.00
2023-05-10T00:10:11.828Z,100.00
2023-05-10T00:13:14.704Z,100.00
2023-05-10T00:16:17.435Z,100.00
2023-05-10T00:19:20.058Z,100.00
2023-05-10T00:22:22.657Z,100.00
2023-05-10T00:25:25.322Z,100.00
2023-05-10T00:28:29.748Z,100.00
2023-05-10T00:31:32.875Z,100.00
2023-05-10T00:34:35.499Z,100.00
2023-05-10T00:37:38.219Z,100.00
2023-05-10T00:40:40.891Z,100.00
2023-05-10T00:43:50.142Z,100.00
2023-05-10T00:46:53.548Z,100.00
2023-05-10T00:49:56.901Z,100.00
2023-05-10T00:53:00.765Z,100.00
2023-05-10T00:56:04.352Z,100.00
2023-05-10T00:59:07.118Z,100.00
2023-05-10T01:02:09.820Z,100.00
2023-05-10T01:05:12.925Z,100.00
2023-05-10T01:08:15.676Z,100.00
2023-05-10T01:11:18.365Z,100.00
2023-05-10T01:14:21.606Z,100.00
2023-05-10T01:17:24.542Z,100.00
2023-05-10T01:20:28.146Z,100.00
2023-05-10T01:24:01.545Z,100.00
2023-05-10T01:27:46.238Z,100.00
2023-05-10T01:30:48.799Z,100.00
2023-05-10T01:34:03.314Z,100.00
2023-05-10T01:37:11.879Z,100.00
2023-05-10T01:40:52.050Z,100.00
2023-05-10T01:44:32.274Z,100.00
2023-05-10T01:47:47.469Z,100.00
2023-05-10T01:50:52.165Z,100.00
2023-05-10T01:54:01.678Z,100.00
2023-05-10T01:57:07.356Z,100.00
2023-05-10T02:00:11.851Z,100.00
2023-05-10T02:03:17.520Z,100.00
2023-05-10T02:06:21.656Z,100.00
2023-05-10T02:09:25.501Z,100.00
2023-05-10T02:12:29.532Z,100.00
2023-05-10T02:15:32.533Z,100.00
2023-05-10T02:18:37.036Z,100.00
2023-05-10T02:21:41.364Z,100.00
2023-05-10T02:24:44.864Z,100.00
2023-05-10T02:27:48.691Z,100.00
2023-05-10T02:30:52.074Z,100.00
2023-05-10T02:33:55.352Z,100.00
2023-05-10T02:36:58.153Z,100.00
2023-05-10T02:40:04.183Z,100.00
2023-05-10T02:43:07.979Z,100.00
2023-05-10T02:46:10.574Z,100.00
2023-05-10T02:49:13.259Z,100.00
2023-05-10T02:52:24.218Z,100.00
2023-05-10T02:55:34.332Z,100.00
2023-05-10T02:58:36.926Z,100.00
2023-05-10T03:01:39.727Z,100.00
2023-05-10T03:04:42.997Z,100.00
2023-05-10T03:07:46.649Z,100.00
2023-05-10T03:11:10.594Z,100.00
2023-05-10T03:14:31.994Z,100.00
2023-05-10T03:17:48.808Z,100.00
2023-05-10T03:20:56.653Z,100.00
2023-05-10T03:24:20.100Z,100.00
2023-05-10T03:27:26.512Z,100.00
2023-05-10T03:30:30.548Z,100.00
2023-05-10T03:33:33.568Z,100.00
2023-05-10T03:36:36.260Z,100.00
2023-05-10T03:39:38.934Z,100.00
2023-05-10T03:42:43.728Z,100.00
2023-05-10T03:45:46.470Z,100.00
2023-05-10T03:48:49.176Z,100.00
2023-05-10T03:51:51.807Z,100.00
2023-05-10T03:54:54.470Z,100.00
2023-05-10T03:57:57.357Z,100.00
2023-05-10T04:01:00.677Z,100.00
2023-05-10T04:04:03.566Z,100.00
2023-05-10T04:07:07.778Z,100.00
2023-05-10T04:10:11.054Z,100.00
2023-05-10T04:13:13.753Z,100.00
2023-05-10T04:16:16.463Z,100.00
2023-05-10T04:19:19.066Z,100.00
2023-05-10T04:22:21.988Z,100.00
2023-05-10T04:25:24.692Z,100.00
2023-05-10T04:28:28.312Z,100.00
2023-05-10T04:31:33.785Z,100.00
2023-05-10T04:34:39.182Z,100.00
2023-05-10T04:37:41.857Z,100.00
2023-05-10T04:40:44.545Z,100.00
2023-05-10T04:43:49.926Z,100.00
2023-05-10T04:46:52.492Z,100.00
2023-05-10T04:50:00.061Z,100.00
2023-05-10T04:53:02.681Z,100.00
2023-05-10T04:56:05.708Z,100.00
2023-05-10T04:59:08.438Z,100.00
2023-05-10T05:02:11.024Z,100.00
2023-05-10T05:05:13.925Z,100.00
2023-05-10T05:08:16.823Z,100.00
2023-05-10T05:11:19.822Z,100.00
2023-05-10T05:14:22.585Z,100.00
2023-05-10T05:17:27.895Z,100.00
2023-05-10T05:20:37.148Z,100.00
2023-05-10T05:23:40.713Z,100.00
2023-05-10T05:26:43.317Z,100.00
2023-05-10T05:29:48.793Z,100.00
2023-05-10T05:32:51.514Z,100.00
2023-05-10T05:35:54.241Z,99.88
2023-05-10T05:38:57.145Z,100.00
2023-05-10T05:41:59.887Z,99.44
2023-05-10T05:45:04.850Z,97.79
2023-05-10T05:48:07.699Z,98.17
2023-05-10T05:51:10.374Z,97.82
2023-05-10T05:54:17.093Z,96.21
2023-05-10T05:57:22.683Z,94.96
2023-05-10T06:00:26.756Z,93.40
2023-05-10T06:03:29.499Z,93.26
2023-05-10T06:06:33.414Z,92.73
2023-05-10T06:09:36.227Z,91.08
2023-05-10T06:12:41.860Z,90.12
2023-05-10T06:15:48.114Z,88.44
2023-05-10T06:18:50.836Z,86.80
2023-05-10T06:21:53.948Z,87.19
2023-05-10T06:24:59.511Z,87.42
2023-05-10T06:28:02.386Z,86.23
2023-05-10T06:31:08.068Z,85.50
2023-05-10T06:34:10.856Z,85.09
2023-05-10T06:37:13.467Z,84.67
2023-05-10T06:40:16.704Z,83.91
2023-05-10T06:43:19.351Z,84.22
2023-05-10T06:46:22.118Z,82.46
2023-05-10T06:49:24.804Z,82.72
2023-05-10T06:52:27.366Z,82.29
2023-05-10T06:55:30.534Z,82.29
2023-05-10T06:58:33.895Z,81.16
2023-05-10T07:01:36.544Z,80.04
2023-05-10T07:04:39.260Z,80.13
2023-05-10T07:07:42.056Z,78.90
2023-05-10T07:10:44.839Z,80.08
2023-05-10T07:13:47.589Z,78.96
2023-05-10T07:16:50.585Z,78.78
2023-05-10T07:19:53.318Z,78.04
2023-05-10T07:22:56.010Z,76.30
2023-05-10T07:25:58.828Z,76.47
2023-05-10T07:29:01.767Z,75.40
2023-05-10T07:32:05.039Z,74.86
2023-05-10T07:35:08.014Z,74.84
2023-05-10T07:38:12.437Z,72.65
2023-05-10T07:41:15.073Z,70.16
2023-05-10T07:44:20.257Z,70.62
2023-05-10T07:47:23.026Z,68.49
2023-05-10T07:50:25.688Z,68.46
2023-05-10T07:53:28.783Z,65.76
2023-05-10T07:56:33.409Z,65.45
2023-05-10T07:59:41.482Z,64.89
2023-05-10T08:02:44.260Z,64.21
2023-05-10T08:05:47.060Z,64.86
2023-05-10T08:08:54.729Z,63.88
2023-05-10T08:11:57.633Z,63.55
2023-05-10T08:15:00.546Z,63.70
2023-05-10T08:18:03.310Z,62.14
2023-05-10T08:21:06.357Z,61.01
2023-05-10T08:24:09.143Z,61.56
2023-05-10T08:27:11.988Z,60.98
2023-05-10T08:30:16.908Z,60.47
2023-05-10T08:33:20.025Z,61.54
2023-05-10T08:36:25.293Z,59.53
2023-05-10T08:39:30.781Z,59.47
2023-05-10T08:42:37.373Z,58.30
2023-05-10T08:45:42.396Z,60.15
2023-05-10T08:48:49.191Z,57.17
2023-05-10T08:51:56.119Z,56.87
2023-05-10T08:54:59.349Z,56.32
2023-05-10T08:58:04.807Z,55.74
2023-05-10T09:01:07.597Z,54.10
2023-05-10T09:04:10.581Z,55.93
2023-05-10T09:07:13.687Z,56.50
2023-05-10T09:10:17.013Z,58.55
2023-05-10T09:13:20.615Z,55.50
2023-05-10T09:16:24.513Z,54.11
2023-05-10T09:19:27.238Z,54.97
2023-05-10T09:22:29.976Z,56.34
2023-05-10T09:25:34.467Z,55.99
2023-05-10T09:28:57.918Z,54.91
2023-05-10T09:32:00.560Z,55.32
2023-05-10T09:35:18.154Z,55.64
2023-05-10T09:38:21.015Z,54.41
2023-05-10T09:41:24.725Z,54.09
2023-05-10T09:44:29.050Z,54.58
2023-05-10T09:47:36.731Z,54.42
2023-05-10T09:50:40.291Z,54.64
2023-05-10T09:53:46.982Z,54.19
2023-05-10T09:56:49.952Z,55.20
2023-05-10T09:59:54.671Z,54.84
2023-05-10T10:03:03.720Z,54.52
2023-05-10T10:06:18.902Z,54.69
2023-05-10T10:09:29.842Z,50.85
2023-05-10T10:12:32.809Z,52.00
2023-05-10T10:15:36.128Z,50.79
2023-05-10T10:18:42.065Z,51.28
2023-05-10T10:21:45.656Z,51.04
2023-05-10T10:24:48.454Z,52.58
2023-05-10T10:27:53.880Z,50.75
2023-05-10T10:30:57.457Z,51.18
2023-05-10T10:34:03.179Z,51.23
2023-05-10T10:37:07.127Z,50.17
2023-05-10T10:40:26.057Z,49.16
2023-05-10T10:43:31.486Z,49.65
2023-05-10T10:46:35.493Z,49.67
2023-05-10T10:49:41.236Z,47.83
2023-05-10T10:52:44.841Z,48.69
2023-05-10T10:55:53.788Z,48.25
2023-05-10T10:59:00.816Z,46.52
2023-05-10T11:02:03.837Z,48.82
2023-05-10T11:05:34.583Z,48.82
2023-05-10T11:08:46.079Z,50.40
2023-05-10T11:11:59.629Z,46.87
2023-05-10T11:15:12.823Z,47.84
2023-05-10T11:18:20.454Z,46.81
2023-05-10T11:21:23.602Z,47.36
2023-05-10T11:24:28.947Z,49.05
2023-05-10T11:27:31.571Z,47.72
2023-05-10T11:30:39.320Z,46.19
2023-05-10T11:33:54.005Z,48.33
2023-05-10T11:36:58.624Z,46.17
2023-05-10T11:40:02.067Z,45.63
2023-05-10T11:43:05.567Z,46.40
2023-05-10T11:46:13.626Z,46.16
2023-05-10T11:49:16.384Z,45.80
2023-05-10T11:52:20.255Z,46.15
2023-05-10T11:55:23.425Z,45.63
2023-05-10T11:58:26.375Z,45.76
2023-05-10T12:01:29.936Z,47.46
2023-05-10T12:04:47.973Z,48.29
2023-05-10T12:07:55.180Z,49.13
2023-05-10T12:11:16.594Z,46.76
2023-05-10T12:14:45.215Z,47.41
2023-05-10T12:18:18.654Z,44.47
2023-05-10T12:21:32.389Z,45.83
2023-05-10T12:24:41.076Z,43.62
2023-05-10T12:27:58.519Z,43.07
2023-05-10T12:31:16.877Z,40.61
2023-05-10T12:34:43.400Z,40.52
2023-05-10T12:37:52.139Z,42.30
2023-05-10T12:41:10.049Z,38.95
2023-05-10T12:44:20.625Z,39.98
2023-05-10T12:47:51.844Z,40.97
2023-05-10T12:51:16.209Z,40.70
2023-05-10T12:54:25.509Z,37.96
2023-05-10T12:57:36.497Z,41.09
2023-05-10T13:00:42.434Z,38.05
2023-05-10T13:03:51.484Z,39.06
2023-05-10T13:07:00.143Z,39.76
2023-05-10T13:10:02.937Z,42.22
2023-05-10T13:13:06.393Z,44.07
2023-05-10T13:16:10.384Z,43.58
2023-05-10T13:19:18.912Z,41.41
2023-05-10T13:22:36.421Z,39.65
2023-05-10T13:25:48.874Z,39.63
2023-05-10T13:28:57.883Z,41.13
2023-05-10T13:32:06.709Z,35.67
2023-05-10T13:35:18.303Z,33.91
2023-05-10T13:38:23.943Z,33.87
2023-05-10T13:41:28.640Z,34.82
2023-05-10T13:44:40.674Z,33.90
2023-05-10T13:47:43.585Z,31.72
2023-05-10T13:50:46.275Z,30.34
2023-05-10T13:53:48.858Z,31.40
2023-05-10T13:56:51.540Z,32.59
2023-05-10T13:59:55.875Z,33.79
2023-05-10T14:03:00.309Z,33.56
2023-05-10T14:06:03.569Z,33.39
2023-05-10T14:09:06.198Z,35.63
2023-05-10T14:12:09.233Z,36.27
2023-05-10T14:15:12.720Z,39.86
2023-05-10T14:18:15.454Z,41.63
2023-05-10T14:21:19.236Z,39.71
2023-05-10T14:24:21.915Z,37.65
2023-05-10T14:27:24.518Z,36.92
2023-05-10T14:30:27.152Z,37.80
2023-05-10T14:33:29.763Z,39.11
2023-05-10T14:36:34.757Z,39.29
2023-05-10T14:39:37.341Z,35.94
2023-05-10T14:42:39.938Z,36.82
2023-05-10T14:45:42.588Z,33.30
2023-05-10T14:48:45.238Z,32.66
2023-05-10T14:51:47.931Z,31.36
2023-05-10T14:54:50.560Z,34.56
2023-05-10T14:57:53.199Z,37.20
2023-05-10T15:00:55.832Z,39.08
2023-05-10T15:03:58.971Z,40.62
2023-05-10T15:07:01.923Z,39.43
2023-05-10T15:10:05.196Z,41.16
2023-05-10T15:13:07.905Z,42.48
2023-05-10T15:16:10.654Z,42.12
2023-05-10T15:19:13.309Z,39.33
2023-05-10T15:22:16.398Z,40.92
2023-05-10T15:25:21.910Z,41.55
2023-05-10T15:28:27.545Z,42.84
2023-05-10T15:31:30.340Z,44.81
2023-05-10T15:34:34.920Z,43.27
2023-05-10T15:37:40.818Z,43.97
2023-05-10T15:40:43.414Z,44.56
2023-05-10T15:43:46.054Z,45.76
2023-05-10T15:46:48.756Z,45.00
2023-05-10T15:49:51.425Z,42.32
2023-05-10T15:52:54.156Z,39.62
2023-05-10T15:55:56.854Z,35.13
2023-05-10T15:58:59.456Z,33.96
2023-05-10T16:02:04.176Z,34.24
2023-05-10T16:05:07.116Z,34.21
2023-05-10T16:08:09.887Z,37.42
2023-05-10T16:11:12.569Z,40.20
2023-05-10T16:14:16.278Z,43.66
2023-05-10T16:17:20.466Z,43.31
2023-05-10T16:20:23.450Z,45.13
2023-05-10T16:23:26.077Z,45.19
2023-05-10T16:26:28.685Z,45.61
2023-05-10T16:29:32.124Z,44.52
2023-05-10T16:32:35.322Z,40.82
2023-05-10T16:35:39.006Z,40.51
2023-05-10T16:38:43.150Z,44.88
2023-05-10T16:41:45.803Z,46.54
2023-05-10T16:44:51.108Z,48.13
2023-05-10T16:47:54.038Z,47.25
2023-05-10T16:51:09.649Z,47.23
2023-05-10T16:54:12.325Z,48.49
2023-05-10T16:57:14.970Z,50.59
2023-05-10T17:00:18.867Z,50.49
2023-05-10T17:03:24.888Z,50.62
2023-05-10T17:06:30.305Z,50.89
2023-05-10T17:09:33.007Z,51.62
2023-05-10T17:12:39.453Z,52.79
2023-05-10T17:15:42.197Z,53.78
2023-05-10T17:18:46.009Z,54.46
2023-05-10T17:21:48.940Z,55.64
2023-05-10T17:24:51.530Z,57.01
2023-05-10T17:27:54.152Z,56.96
2023-05-10T17:30:58.078Z,57.74
2023-05-10T17:34:01.804Z,58.65
2023-05-10T17:37:05.251Z,58.83
2023-05-10T17:40:10.178Z,60.48
2023-05-10T17:43:13.153Z,61.43
2023-05-10T17:46:15.853Z,61.18
2023-05-10T17:49:21.671Z,61.66
2023-05-10T17:52:24.383Z,62.82
2023-05-10T17:55:27.274Z,63.93
2023-05-10T17:58:30.507Z,65.32
2023-05-10T18:01:33.101Z,65.61
2023-05-10T18:04:35.908Z,66.34
2023-05-10T18:07:38.595Z,66.60
2023-05-10T18:10:41.633Z,66.83
2023-05-10T18:13:44.430Z,67.39
2023-05-10T18:16:50.380Z,67.61
2023-05-10T18:19:52.951Z,68.43
2023-05-10T18:22:56.159Z,69.00
2023-05-10T18:25:58.848Z,69.10
2023-05-10T18:29:01.758Z,69.65
2023-05-10T18:32:04.914Z,69.42
2023-05-10T18:35:08.341Z,68.80
2023-05-10T18:38:11.127Z,69.00
2023-05-10T18:41:14.663Z,69.14
2023-05-10T18:44:17.270Z,69.12
2023-05-10T18:47:20.079Z,69.99
2023-05-10T18:50:22.854Z,71.19
2023-05-10T18:53:25.571Z,70.11
2023-05-10T18:56:28.351Z,71.33
2023-05-10T18:59:36.950Z,71.68
2023-05-10T19:02:40.705Z,72.04
2023-05-10T19:05:43.431Z,71.65
2023-05-10T19:08:49.132Z,72.96
2023-05-10T19:11:51.976Z,73.28
2023-05-10T19:14:54.876Z,74.04
2023-05-10T19:17:57.622Z,74.66
2023-05-10T19:21:04.747Z,75.06
2023-05-10T19:24:07.703Z,75.39
2023-05-10T19:27:13.584Z,75.96
2023-05-10T19:30:16.263Z,75.67
2023-05-10T19:33:19.602Z,75.54
2023-05-10T19:36:22.392Z,75.33
2023-05-10T19:39:25.129Z,74.90
2023-05-10T19:42:28.016Z,75.41
2023-05-10T19:45:30.648Z,74.96
2023-05-10T19:48:33.432Z,74.66
2023-05-10T19:51:36.336Z,75.92
2023-05-10T19:54:40.138Z,75.98
2023-05-10T19:57:46.222Z,76.38
2023-05-10T20:00:54.248Z,76.49
2023-05-10T20:03:57.034Z,77.26
2023-05-10T20:06:59.715Z,77.09
2023-05-10T20:10:02.958Z,77.60
2023-05-10T20:13:05.715Z,77.41
2023-05-10T20:16:08.587Z,77.07
2023-05-10T20:19:12.346Z,77.31
2023-05-10T20:22:15.062Z,76.73
2023-05-10T20:25:18.864Z,76.61
2023-05-10T20:28:23.570Z,76.55
2023-05-10T20:31:26.622Z,76.57
2023-05-10T20:34:29.459Z,77.12
2023-05-10T20:37:32.335Z,77.03
2023-05-10T20:40:35.023Z,77.47
2023-05-10T20:43:37.805Z,78.26
2023-05-10T20:46:40.609Z,78.17
2023-05-10T20:49:43.310Z,78.49
2023-05-10T20:52:46.062Z,78.57
2023-05-10T20:55:48.715Z,79.23
2023-05-10T20:58:51.494Z,79.69
2023-05-10T21:01:54.286Z,79.87
2023-05-10T21:04:57.970Z,79.65
2023-05-10T21:08:00.848Z,79.78
2023-05-10T21:11:06.362Z,81.38
2023-05-10T21:14:09.827Z,81.41
2023-05-10T21:17:14.273Z,81.74
2023-05-10T21:20:17.321Z,81.87
2023-05-10T21:23:20.125Z,82.41
2023-05-10T21:26:23.363Z,82.68
2023-05-10T21:29:26.135Z,83.78
2023-05-10T21:32:28.763Z,84.80
2023-05-10T21:35:31.747Z,85.30
2023-05-10T21:38:34.521Z,86.39
2023-05-10T21:41:37.353Z,87.71
2023-05-10T21:44:42.538Z,87.96
2023-05-10T21:47:45.705Z,88.64
2023-05-10T21:50:48.426Z,89.04
2023-05-10T21:53:51.650Z,89.12
2023-05-10T21:56:55.249Z,89.23
2023-05-10T21:59:59.071Z,88.25
2023-05-10T22:03:02.042Z,87.89
2023-05-10T22:06:04.939Z,88.33
2023-05-10T22:09:07.681Z,88.05
2023-05-10T22:12:10.357Z,87.47
2023-05-10T22:15:13.129Z,86.62
2023-05-10T22:18:15.738Z,86.15
2023-05-10T22:21:18.346Z,86.24
2023-05-10T22:24:23.613Z,86.61
2023-05-10T22:27:26.303Z,86.80
2023-05-10T22:30:30.962Z,87.71
2023-05-10T22:33:39.442Z,88.74
2023-05-10T22:36:42.488Z,89.96
2023-05-10T22:39:54.055Z,90.57
2023-05-10T22:42:56.608Z,90.73
2023-05-10T22:45:59.209Z,91.06
2023-05-10T22:49:01.944Z,91.57
2023-05-10T22:52:08.766Z,91.33
2023-05-10T22:55:11.486Z,91.01
2023-05-10T22:58:14.216Z,90.50
2023-05-10T23:01:17.269Z,89.89
2023-05-10T23:04:22.856Z,89.28
2023-05-10T23:07:28.323Z,88.98
2023-05-10T23:10:30.849Z,88.24
2023-05-10T23:13:33.496Z,88.20
2023-05-10T23:16:36.318Z,87.47
2023-05-10T23:19:39.052Z,87.40
2023-05-10T23:22:41.653Z,88.25
2023-05-10T23:25:44.249Z,88.37
2023-05-10T23:28:47.030Z,88.16
2023-05-10T23:31:52.671Z,88.76
2023-05-10T23:34:55.384Z,89.36
2023-05-10T23:37:57.946Z,89.69
2023-05-10T23:41:00.594Z,89.46
2023-05-10T23:44:11.699Z,89.28
2023-05-10T23:47:14.285Z,89.67
2023-05-10T23:50:17.110Z,89.61
2023-05-10T23:53:19.993Z,88.57
2023-05-10T23:56:22.665Z,88.46
2023-05-10T23:59:25.684Z,89.13
